Time,TemperatureF,DewpointF,PressureIn,WindDirection,WindDirectionDegrees,WindSpeedMPH,WindSpeedGustMPH,Humidity,HourlyPrecipIn,Conditions,Clouds,dailyrainin,SoftwareType,DateUTC
2014-03-09 13:27:00,44.9,44.6,30.29,NW,313,1.0,4.0,99,0.00,,---,0.00,VWS V13.01,2014-03-09 18:27:00,
2014-03-09 13:32:00,45.1,44.8,30.28,WNW,292,0.0,5.0,99,0.00,,---,0.00,VWS V13.01,2014-03-09 18:32:00,
2014-03-09 13:37:00,45.2,44.9,30.28,WNW,293,0.0,0.0,99,0.00,,---,0.00,VWS V13.01,2014-03-09 18:37:00,
2014-03-09 13:42:00,45.4,45.1,30.28,WNW,293,0.0,0.0,99,0.00,,---,0.00,VWS V13.01,2014-03-09 18:42:00,
2014-03-09 13:47:00,45.6,45.3,30.28,WNW,293,1.0,3.0,99,0.00,,---,0.00,VWS V13.01,2014-03-09 18:47:00,
2014-03-09 13:51:00,45.8,45.5,30.28,WNW,293,2.0,3.0,99,0.00,,---,0.00,VWS V13.01,2014-03-09 18:51:00,
2014-03-09 13:56:00,46.0,45.7,30.28,WNW,297,0.0,4.0,99,0.00,,---,0.00,VWS V13.01,2014-03-09 18:56:00,
2014-03-09 14:01:00,46.4,46.1,30.27,WNW,297,0.0,4.0,99,0.00,,---,0.00,VWS V13.01,2014-03-09 19:01:00,
2014-03-09 14:06:00,46.8,46.5,30.28,WNW,296,0.0,0.0,99,0.00,,---,0.00,VWS V13.01,2014-03-09 19:06:00,
2014-03-09 14:11:00,46.9,46.6,30.28,WNW,296,0.0,2.0,99,0.00,,---,0.00,VWS V13.01,2014-03-09 19:11:00,
2014-03-09 14:16:00,47.2,46.9,30.27,WNW,297,0.0,2.0,99,0.00,,---,0.00,VWS V13.01,2014-03-09 19:16:00,
2014-03-09 14:21:00,47.6,47.3,30.27,WNW,297,0.0,0.0,99,0.00,,---,0.00,VWS V13.01,2014-03-09 19:21:00,
2014-03-09 14:26:00,47.8,47.5,30.27,WNW,296,0.0,0.0,99,0.00,,---,0.00,VWS V13.01,2014-03-09 19:26:00,
2014-03-09 14:31:00,48.2,47.9,30.27,WNW,296,0.0,2.0,99,0.00,,---,0.00,VWS V13.01,2014-03-09 19:31:00,
2014-03-09 14:36:00,48.4,47.9,30.26,WNW,296,2.0,2.0,98,0.00,,---,0.00,VWS V13.01,2014-03-09 19:36:00,
2014-03-09 14:41:00,48.7,48.2,30.26,WNW,296,0.0,2.0,98,0.00,,---,0.00,VWS V13.01,2014-03-09 19:41:00,
2014-03-09 14:46:00,49.0,48.2,30.26,WNW,296,0.0,2.0,97,0.00,,---,0.00,VWS V13.01,2014-03-09 19:46:00,
2014-03-09 14:49:00,49.1,48.3,30.25,WNW,295,4.0,4.0,97,0.00,,---,0.00,VWS V13.01,2014-03-09 19:49:00,
2014-03-09 14:54:00,49.3,48.2,30.25,WNW,286,0.0,5.0,96,0.00,,---,0.00,VWS V13.01,2014-03-09 19:54:00,
2014-03-09 14:59:00,49.5,48.1,30.25,WNW,286,3.0,5.0,95,0.00,,---,0.00,VWS V13.01,2014-03-09 19:59:00,
2014-03-09 15:04:00,49.7,48.0,30.25,West,281,1.0,5.0,94,0.00,,---,0.00,VWS V13.01,2014-03-09 20:04:00,
2014-03-09 15:09:00,49.8,47.9,30.25,SW,224,0.0,5.0,93,0.00,,---,0.00,VWS V13.01,2014-03-09 20:09:00,
2014-03-09 15:14:00,50.0,48.1,30.25,SW,224,0.0,5.0,93,0.00,,---,0.00,VWS V13.01,2014-03-09 20:14:00,
2014-03-09 15:19:00,50.3,48.1,30.25,SW,221,0.0,5.0,92,0.00,,---,0.00,VWS V13.01,2014-03-09 20:19:00,
2014-03-09 15:32:00,51.1,48.6,30.24,SW,221,0.0,3.0,91,0.00,,---,0.00,VWS V13.01,2014-03-09 20:32:00,
2014-03-09 15:37:00,51.2,48.1,30.24,SSW,208,2.0,5.0,89,0.00,,---,0.00,VWS V13.01,2014-03-09 20:37:00,
2014-03-09 15:42:00,51.2,48.1,30.24,SSW,207,1.0,5.0,89,0.00,,---,0.00,VWS V13.01,2014-03-09 20:42:00,
2014-03-09 15:47:00,51.3,48.2,30.24,SSW,208,2.0,5.0,89,0.00,,---,0.00,VWS V13.01,2014-03-09 20:47:00,
2014-03-09 15:52:00,51.5,48.4,30.24,SSW,205,2.0,5.0,89,0.00,,---,0.00,VWS V13.01,2014-03-09 20:52:00,
2014-03-09 15:57:00,51.5,48.1,30.23,SSW,203,0.0,5.0,88,0.00,,---,0.00,VWS V13.01,2014-03-09 20:57:00,
2014-03-09 16:02:00,51.6,48.2,30.23,SSW,203,0.0,5.0,88,0.00,,---,0.00,VWS V13.01,2014-03-09 21:02:00,
2014-03-09 16:07:00,51.7,48.3,30.22,SSW,206,2.0,4.0,88,0.00,,---,0.00,VWS V13.01,2014-03-09 21:07:00,
2014-03-09 16:12:00,51.9,48.8,30.22,South,190,1.0,4.0,89,0.00,,---,0.00,VWS V13.01,2014-03-09 21:12:00,
2014-03-09 16:17:00,51.9,48.5,30.22,South,190,0.0,4.0,88,0.00,,---,0.00,VWS V13.01,2014-03-09 21:17:00,
2014-03-09 16:22:00,51.9,48.5,30.22,South,190,0.0,0.0,88,0.00,,---,0.00,VWS V13.01,2014-03-09 21:22:00,
2014-03-09 16:27:00,52.1,48.4,30.22,South,190,0.0,4.0,87,0.00,,---,0.00,VWS V13.01,2014-03-09 21:27:00,
2014-03-09 16:32:00,52.2,48.5,30.22,South,190,0.0,4.0,87,0.00,,---,0.00,VWS V13.01,2014-03-09 21:32:00,
2014-03-09 16:37:00,52.3,48.5,30.21,South,190,0.0,0.0,87,0.00,,---,0.00,VWS V13.01,2014-03-09 21:37:00,
2014-03-09 16:42:00,52.4,48.7,30.21,South,190,1.0,4.0,87,0.00,,---,0.00,VWS V13.01,2014-03-09 21:42:00,
2014-03-09 16:47:00,52.3,48.5,30.21,SE,141,2.0,4.0,87,0.00,,---,0.00,VWS V13.01,2014-03-09 21:47:00,
2014-03-09 16:52:00,52.1,48.0,30.21,SE,141,0.0,1.0,86,0.00,,---,0.00,VWS V13.01,2014-03-09 21:52:00,
2014-03-09 16:57:00,51.9,48.2,30.21,SE,130,0.0,4.0,87,0.00,,---,0.00,VWS V13.01,2014-03-09 21:57:00,
2014-03-09 17:02:00,51.9,48.5,30.21,SE,130,0.0,4.0,88,0.00,,---,0.00,VWS V13.01,2014-03-09 22:02:00,
2014-03-09 17:07:00,52.0,48.6,30.21,SSW,210,0.0,4.0,88,0.00,,---,0.00,VWS V13.01,2014-03-09 22:07:00,
2014-03-09 17:12:00,52.1,48.4,30.21,SSW,211,0.0,4.0,87,0.00,,---,0.00,VWS V13.01,2014-03-09 22:12:00,
2014-03-09 17:17:00,52.1,48.7,30.21,SSW,211,0.0,4.0,88,0.00,,---,0.00,VWS V13.01,2014-03-09 22:17:00,
2014-03-09 17:22:00,52.1,48.4,30.20,SW,222,3.0,4.0,87,0.00,,---,0.00,VWS V13.01,2014-03-09 22:22:00,
2014-03-09 17:27:00,52.0,48.3,30.21,SW,223,0.0,4.0,87,0.00,,---,0.00,VWS V13.01,2014-03-09 22:27:00,
2014-03-09 17:32:00,52.0,48.3,30.21,SW,223,0.0,4.0,87,0.00,,---,0.00,VWS V13.01,2014-03-09 22:32:00,
2014-03-09 17:37:00,51.9,48.2,30.21,SW,223,3.0,3.0,87,0.00,,---,0.00,VWS V13.01,2014-03-09 22:37:00,
2014-03-09 17:42:00,51.8,48.1,30.21,SW,223,0.0,3.0,87,0.00,,---,0.00,VWS V13.01,2014-03-09 22:42:00,
2014-03-09 17:47:00,51.7,48.0,30.21,SW,223,1.0,3.0,87,0.00,,---,0.00,VWS V13.01,2014-03-09 22:47:00,
2014-03-09 17:52:00,51.7,48.3,30.21,SW,223,0.0,0.0,88,0.00,,---,0.00,VWS V13.01,2014-03-09 22:52:00,
2014-03-09 17:57:00,51.7,48.3,30.21,SW,223,0.0,3.0,88,0.00,,---,0.00,VWS V13.01,2014-03-09 22:57:00,
2014-03-09 18:02:00,51.8,48.4,30.20,SW,223,0.0,3.0,88,0.00,,---,0.00,VWS V13.01,2014-03-09 23:02:00,
2014-03-09 18:07:00,51.9,48.5,30.20,SW,223,0.0,0.0,88,0.00,,---,0.00,VWS V13.01,2014-03-09 23:07:00,
2014-03-09 18:12:00,51.9,48.5,30.20,SW,223,0.0,0.0,88,0.00,,---,0.00,VWS V13.01,2014-03-09 23:12:00,
2014-03-09 18:17:00,51.9,48.5,30.20,SW,223,0.0,0.0,88,0.00,,---,0.00,VWS V13.01,2014-03-09 23:17:00,
2014-03-09 18:22:00,51.9,48.5,30.20,SW,223,2.0,2.0,88,0.00,,---,0.00,VWS V13.01,2014-03-09 23:22:00,
2014-03-09 18:27:00,51.8,48.4,30.20,SW,223,0.0,2.0,88,0.00,,---,0.00,VWS V13.01,2014-03-09 23:27:00,
2014-03-09 18:32:00,51.8,48.4,30.20,SW,223,0.0,2.0,88,0.00,,---,0.00,VWS V13.01,2014-03-09 23:32:00,
2014-03-09 18:37:00,51.7,48.3,30.20,SW,223,0.0,0.0,88,0.00,,---,0.00,VWS V13.01,2014-03-09 23:37:00,
2014-03-09 18:42:00,51.7,48.3,30.20,SW,223,0.0,0.0,88,0.00,,---,0.00,VWS V13.01,2014-03-09 23:42:00,
2014-03-09 18:47:00,51.7,48.3,30.20,SW,223,0.0,0.0,88,0.00,,---,0.00,VWS V13.01,2014-03-09 23:47:00,
2014-03-09 18:52:00,51.7,48.3,30.21,SW,223,0.0,0.0,88,0.00,,---,0.00,VWS V13.01,2014-03-09 23:52:00,
2014-03-09 18:57:00,51.6,48.2,30.21,SW,223,0.0,0.0,88,0.00,,---,0.00,VWS V13.01,2014-03-09 23:57:00,
2014-03-09 19:02:00,51.5,48.1,30.21,SW,223,0.0,0.0,88,0.00,,---,0.00,VWS V13.01,2014-03-10 00:02:00,
2014-03-09 19:07:00,51.5,48.4,30.20,SW,223,0.0,0.0,89,0.00,,---,0.00,VWS V13.01,2014-03-10 00:07:00,
2014-03-09 19:12:00,51.5,48.4,30.20,SW,223,0.0,0.0,89,0.00,,---,0.00,VWS V13.01,2014-03-10 00:12:00,
2014-03-09 19:17:00,51.5,48.4,30.20,SW,223,0.0,0.0,89,0.00,,---,0.00,VWS V13.01,2014-03-10 00:17:00,
2014-03-09 19:22:00,51.5,48.4,30.20,SW,223,0.0,0.0,89,0.00,,---,0.00,VWS V13.01,2014-03-10 00:22:00,
2014-03-09 19:27:00,51.4,48.3,30.20,SW,223,0.0,0.0,89,0.00,,---,0.00,VWS V13.01,2014-03-10 00:27:00,
2014-03-09 19:32:00,51.4,48.3,30.20,SW,223,0.0,0.0,89,0.00,,---,0.00,VWS V13.01,2014-03-10 00:32:00,
2014-03-09 19:37:00,51.3,48.2,30.20,SW,223,0.0,0.0,89,0.00,,---,0.00,VWS V13.01,2014-03-10 00:37:00,
2014-03-09 19:42:00,51.2,48.1,30.20,SW,223,0.0,0.0,89,0.00,,---,0.00,VWS V13.01,2014-03-10 00:42:00,
2014-03-09 19:47:00,51.1,48.0,30.19,SW,223,0.0,0.0,89,0.00,,---,0.00,VWS V13.01,2014-03-10 00:47:00,
2014-03-09 19:52:00,50.9,47.8,30.19,SW,223,0.0,0.0,89,0.00,,---,0.00,VWS V13.01,2014-03-10 00:52:00,
2014-03-09 19:57:00,50.8,47.7,30.19,SW,223,0.0,0.0,89,0.00,,---,0.00,VWS V13.01,2014-03-10 00:57:00,
2014-03-09 20:02:00,50.6,47.5,30.19,SW,223,0.0,0.0,89,0.00,,---,0.00,VWS V13.01,2014-03-10 01:02:00,
2014-03-09 20:07:00,50.4,47.3,30.19,SW,223,0.0,0.0,89,0.00,,---,0.00,VWS V13.01,2014-03-10 01:07:00,
2014-03-09 20:12:00,50.2,47.4,30.19,SW,223,0.0,0.0,90,0.00,,---,0.00,VWS V13.01,2014-03-10 01:12:00,
2014-03-09 20:17:00,50.1,47.3,30.20,SW,223,0.0,0.0,90,0.00,,---,0.00,VWS V13.01,2014-03-10 01:17:00,
2014-03-09 20:22:00,49.8,47.0,30.20,SW,223,0.0,0.0,90,0.00,,---,0.00,VWS V13.01,2014-03-10 01:22:00,
2014-03-09 20:27:00,49.5,46.7,30.20,SW,223,0.0,0.0,90,0.00,,---,0.00,VWS V13.01,2014-03-10 01:27:00,
2014-03-09 20:32:00,49.2,46.7,30.20,SW,223,0.0,0.0,91,0.00,,---,0.00,VWS V13.01,2014-03-10 01:32:00,
2014-03-09 20:37:00,49.0,46.2,30.19,SW,223,0.0,0.0,90,0.00,,---,0.00,VWS V13.01,2014-03-10 01:37:00,
2014-03-09 20:42:00,48.7,45.9,30.19,SW,223,0.0,0.0,90,0.00,,---,0.00,VWS V13.01,2014-03-10 01:42:00,
2014-03-09 20:47:00,48.5,45.7,30.19,SW,223,0.0,0.0,90,0.00,,---,0.00,VWS V13.01,2014-03-10 01:47:00,
2014-03-09 20:52:00,48.3,45.5,30.20,SW,223,0.0,0.0,90,0.00,,---,0.00,VWS V13.01,2014-03-10 01:52:00,
2014-03-09 20:57:00,48.0,45.5,30.20,SW,223,0.0,0.0,91,0.00,,---,0.00,VWS V13.01,2014-03-10 01:57:00,
2014-03-09 21:02:00,47.8,45.6,30.20,SW,223,0.0,0.0,92,0.00,,---,0.00,VWS V13.01,2014-03-10 02:02:00,
2014-03-09 21:07:00,47.6,45.4,30.20,SW,223,0.0,0.0,92,0.00,,---,0.00,VWS V13.01,2014-03-10 02:07:00,
2014-03-09 21:12:00,47.3,45.4,30.20,SW,223,0.0,0.0,93,0.00,,---,0.00,VWS V13.01,2014-03-10 02:12:00,
2014-03-09 21:17:00,47.1,45.2,30.20,SW,223,0.0,0.0,93,0.00,,---,0.00,VWS V13.01,2014-03-10 02:17:00,
2014-03-09 21:22:00,47.0,45.4,30.20,SW,223,0.0,0.0,94,0.00,,---,0.00,VWS V13.01,2014-03-10 02:22:00,
2014-03-09 21:27:00,46.8,45.2,30.21,SW,223,0.0,0.0,94,0.00,,---,0.00,VWS V13.01,2014-03-10 02:27:00,
2014-03-09 21:32:00,46.7,45.1,30.20,SW,223,0.0,0.0,94,0.00,,---,0.00,VWS V13.01,2014-03-10 02:32:00,
2014-03-09 21:37:00,46.6,45.0,30.20,SW,223,0.0,0.0,94,0.00,,---,0.00,VWS V13.01,2014-03-10 02:37:00,
2014-03-09 21:42:00,46.5,44.9,30.20,SW,223,0.0,0.0,94,0.00,,---,0.00,VWS V13.01,2014-03-10 02:42:00,
2014-03-09 21:47:00,46.3,44.7,30.20,SW,223,0.0,0.0,94,0.00,,---,0.00,VWS V13.01,2014-03-10 02:47:00,
2014-03-09 21:52:00,46.1,44.5,30.20,SW,223,0.0,0.0,94,0.00,,---,0.00,VWS V13.01,2014-03-10 02:52:00,
2014-03-09 21:57:00,46.1,44.5,30.20,SW,223,0.0,2.0,94,0.00,,---,0.00,VWS V13.01,2014-03-10 02:57:00,
2014-03-09 22:02:00,46.1,44.8,30.20,SW,223,0.0,2.0,95,0.00,,---,0.00,VWS V13.01,2014-03-10 03:02:00,
2014-03-09 22:07:00,46.1,44.8,30.20,SW,223,0.0,0.0,95,0.00,,---,0.00,VWS V13.01,2014-03-10 03:07:00,
2014-03-09 22:12:00,46.1,44.8,30.21,SW,223,0.0,0.0,95,0.00,,---,0.00,VWS V13.01,2014-03-10 03:12:00,
2014-03-09 22:17:00,46.0,44.9,30.21,SW,223,0.0,0.0,96,0.00,,---,0.00,VWS V13.01,2014-03-10 03:17:00,
2014-03-09 22:22:00,46.0,44.9,30.21,SW,223,0.0,0.0,96,0.00,,---,0.00,VWS V13.01,2014-03-10 03:22:00,
2014-03-09 22:27:00,46.0,44.9,30.21,SW,223,1.0,2.0,96,0.00,,---,0.00,VWS V13.01,2014-03-10 03:27:00,
2014-03-09 22:32:00,46.1,45.0,30.21,SW,223,0.0,2.0,96,0.00,,---,0.00,VWS V13.01,2014-03-10 03:32:00,
2014-03-09 22:37:00,46.1,45.0,30.21,SSW,194,0.0,1.0,96,0.00,,---,0.00,VWS V13.01,2014-03-10 03:37:00,
2014-03-09 22:42:00,46.1,45.0,30.21,SSE,149,1.0,5.0,96,0.00,,---,0.00,VWS V13.01,2014-03-10 03:42:00,
2014-03-09 22:47:00,46.2,45.4,30.21,SSE,149,0.0,5.0,97,0.00,,---,0.00,VWS V13.01,2014-03-10 03:47:00,
2014-03-09 22:52:00,46.2,45.4,30.21,SSE,149,0.0,0.0,97,0.00,,---,0.00,VWS V13.01,2014-03-10 03:52:00,
2014-03-09 22:57:00,46.1,45.3,30.21,SSE,149,0.0,0.0,97,0.00,,---,0.00,VWS V13.01,2014-03-10 03:57:00,
2014-03-09 23:01:00,46.1,45.3,30.21,SSE,149,1.0,2.0,97,0.00,,---,0.00,VWS V13.01,2014-03-10 04:01:00,
2014-03-09 23:06:00,46.0,45.2,30.21,SSE,149,1.0,1.0,97,0.00,,---,0.00,VWS V13.01,2014-03-10 04:06:00,
2014-03-09 23:11:00,45.9,45.1,30.21,SSE,149,0.0,1.0,97,0.00,,---,0.00,VWS V13.01,2014-03-10 04:11:00,
2014-03-09 23:16:00,45.7,44.6,30.21,SSE,149,0.0,1.0,96,0.00,,---,0.00,VWS V13.01,2014-03-10 04:16:00,
2014-03-09 23:22:00,45.3,44.2,30.21,SSE,149,0.0,0.0,96,0.00,,---,0.00,VWS V13.01,2014-03-10 04:22:00,
2014-03-09 23:27:00,45.0,43.9,30.21,SSE,149,0.0,0.0,96,0.00,,---,0.00,VWS V13.01,2014-03-10 04:27:00,
2014-03-09 23:32:00,44.6,43.5,30.21,SSE,149,0.0,0.0,96,0.00,,---,0.00,VWS V13.01,2014-03-10 04:32:00,
2014-03-09 23:37:00,44.2,43.1,30.21,SSE,149,0.0,0.0,96,0.00,,---,0.00,VWS V13.01,2014-03-10 04:37:00,
2014-03-09 23:42:00,43.8,42.5,30.21,SSE,149,0.0,0.0,95,0.00,,---,0.00,VWS V13.01,2014-03-10 04:42:00,
2014-03-09 23:47:00,43.6,42.5,30.21,SSE,149,0.0,0.0,96,0.00,,---,0.00,VWS V13.01,2014-03-10 04:47:00,
2014-03-09 23:52:00,43.4,42.3,30.21,SSE,149,0.0,0.0,96,0.00,,---,0.00,VWS V13.01,2014-03-10 04:52:00,
2014-03-09 23:57:00,43.2,42.1,30.21,SSE,149,0.0,0.0,96,0.00,,---,0.00,VWS V13.01,2014-03-10 04:57:00,